Avoca, Arkansas
Current Conditions -  °F | °C
As of 2:57 PM on Monday 24 Nov 2014 (Local Time) from KROG Reporting Station
Clear Clear  
Wind Chill: 10°   Ceiling: Unl
Heat Index: 10°   Visibility: 10mi
Dew Point: -4°   Wind: 24mph
Humidity: 38%   Direction: 270°W
Pressure: 29.88"   Gusts: 28mph
Location:  36.4°N, 94.07°W
Report Text: KROG 242057Z 27021G24KT 10SM CLR 10/M04 A2988 RMK AO2 PK WND 28027/2043 SLP119 T01001039 53006
Loading
Personal Weather Stations






























Interactive Weather Map New forecast layout! Learn more

10-Day Weather Forecast

Advertisements
Track Severe Weather on mobile